LGL53RC ELLX-LIRF
Flight info
| Callsign | LGL53RC |
|---|---|
| Flight time | N/A |
| Altitude | 35000 |
| Route | GTQ DCT DEVDI DCT ODINA DCT EKPAL DCT TINKU DCT XIBIL |
| Aircraft | B738/M-SDE2E3FGHIRWXY/LB1 |
Departure
| Time | N/A |
|---|---|
| Airport | Luxembourg-Findel International Airport (ELLX) |
Arrival
| Time | 2026-05-05 00:55 |
|---|---|
| Airport | Rome–Fiumicino Leonardo da Vinci International Airport (LIRF) |
| Time | Latitude | Longitude | Altitude | Speed | Heading |
|---|---|---|---|---|---|
| 2026-05-05 00:49 | 42.03622 | 12.16043 | 3032 ft | 194 kts | 132° |
| 2026-05-05 00:49 | 42.02714 | 12.17376 | 2983 ft | 191 kts | 132° |
| 2026-05-05 00:50 | 42.01831 | 12.18642 | 2945 ft | 180 kts | 139° |
| 2026-05-05 00:50 | 42.00738 | 12.19354 | 3006 ft | 180 kts | 163° |
| 2026-05-05 00:50 | 41.99538 | 12.19867 | 2975 ft | 182 kts | 161° |
| 2026-05-05 00:50 | 41.98335 | 12.20396 | 2834 ft | 182 kts | 161° |
| 2026-05-05 00:51 | 41.97132 | 12.20908 | 2587 ft | 180 kts | 162° |
| 2026-05-05 00:51 | 41.95962 | 12.21398 | 2360 ft | 172 kts | 162° |
| 2026-05-05 00:51 | 41.94850 | 12.21863 | 2127 ft | 162 kts | 162° |
| 2026-05-05 00:51 | 41.93825 | 12.22290 | 1928 ft | 150 kts | 161° |
| 2026-05-05 00:52 | 41.92832 | 12.22709 | 1734 ft | 150 kts | 162° |
| 2026-05-05 00:52 | 41.91845 | 12.23120 | 1532 ft | 147 kts | 161° |
| 2026-05-05 00:52 | 41.90874 | 12.23527 | 1352 ft | 145 kts | 161° |
| 2026-05-05 00:52 | 41.89910 | 12.23928 | 1158 ft | 145 kts | 162° |
| 2026-05-05 00:53 | 41.88943 | 12.24312 | 992 ft | 146 kts | 163° |
| 2026-05-05 00:53 | 41.87980 | 12.24703 | 766 ft | 147 kts | 160° |
| 2026-05-05 00:53 | 41.87011 | 12.25120 | 553 ft | 144 kts | 162° |
| 2026-05-05 00:53 | 41.86056 | 12.25519 | 376 ft | 145 kts | 161° |
| 2026-05-05 00:54 | 41.85090 | 12.25939 | 158 ft | 146 kts | 161° |
| 2026-05-05 00:54 | 41.84137 | 12.26340 | 27 ft | 136 kts | 162° |
| 2026-05-05 00:54 | 41.83320 | 12.26683 | 11 ft | 107 kts | 163° |
| 2026-05-05 00:54 | 41.82765 | 12.26917 | 13 ft | 57 kts | 162° |
| 2026-05-05 00:55 | 41.82425 | 12.27059 | 11 ft | 54 kts | 162° |
| 2026-05-05 00:55 | 41.82103 | 12.27143 | 9 ft | 37 kts | 187° |
| 2026-05-05 00:55 | 41.81922 | 12.27097 | 10 ft | 15 kts | 192° |
| 2026-05-05 00:55 | 41.81821 | 12.27069 | 10 ft | 15 kts | 192° |
| 2026-05-05 00:56 | 41.81723 | 12.27046 | 11 ft | 14 kts | 182° |
| 2026-05-05 00:56 | 41.81621 | 12.27073 | 13 ft | 18 kts | 162° |
| 2026-05-05 00:56 | 41.81476 | 12.27132 | 11 ft | 25 kts | 162° |
| 2026-05-05 00:56 | 41.81288 | 12.27212 | 11 ft | 30 kts | 162° |
| 2026-05-05 00:57 | 41.81091 | 12.27295 | 11 ft | 29 kts | 162° |
| 2026-05-05 00:57 | 41.80932 | 12.27350 | 11 ft | 20 kts | 179° |
| 2026-05-05 00:57 | 41.80801 | 12.27325 | 11 ft | 19 kts | 189° |
| 2026-05-05 00:57 | 41.80681 | 12.27274 | 13 ft | 18 kts | 220° |
| 2026-05-05 00:58 | 41.80630 | 12.27129 | 14 ft | 17 kts | 250° |
| 2026-05-05 00:58 | 41.80587 | 12.26980 | 14 ft | 17 kts | 250° |
| 2026-05-05 00:58 | 41.80549 | 12.26836 | 12 ft | 16 kts | 250° |
| 2026-05-05 00:58 | 41.80508 | 12.26684 | 14 ft | 18 kts | 249° |
| 2026-05-05 00:59 | 41.80459 | 12.26510 | 16 ft | 21 kts | 250° |
| 2026-05-05 00:59 | 41.80369 | 12.26365 | 15 ft | 22 kts | 178° |
| 2026-05-05 00:59 | 41.80224 | 12.26407 | 13 ft | 21 kts | 194° |
| 2026-05-05 00:59 | 41.80090 | 12.26326 | 14 ft | 21 kts | 206° |
| 2026-05-05 01:00 | 41.79960 | 12.26248 | 14 ft | 20 kts | 204° |
| 2026-05-05 01:00 | 41.79834 | 12.26171 | 13 ft | 20 kts | 205° |
| 2026-05-05 01:00 | 41.79706 | 12.26147 | 13 ft | 20 kts | 185° |
| 2026-05-05 01:00 | 41.79603 | 12.26089 | 13 ft | 13 kts | 201° |
| 2026-05-05 01:01 | 41.79559 | 12.26142 | 14 ft | 0 kts | 115° |
| 2026-05-05 01:01 | 41.79558 | 12.26145 | 13 ft | 0 kts | 114° |
| 2026-05-05 01:01 | 41.79557 | 12.26147 | 13 ft | 0 kts | 114° |
| 2026-05-05 01:01 | 41.79556 | 12.26149 | 14 ft | 0 kts | 114° |
| 2026-05-05 01:02 | 41.79555 | 12.26152 | 13 ft | 0 kts | 114° |
| 2026-05-05 01:09 | 41.85013 | 12.25972 | 142 ft | 146 kts | 161° |
| 2026-05-05 01:09 | 41.84077 | 12.26365 | 26 ft | 134 kts | 162° |
| 2026-05-05 01:09 | 41.83273 | 12.26703 | 10 ft | 105 kts | 163° |
| 2026-05-05 01:10 | 41.82740 | 12.26928 | 14 ft | 55 kts | 162° |
| 2026-05-05 01:10 | 41.82401 | 12.27069 | 11 ft | 54 kts | 162° |
| 2026-05-05 01:10 | 41.84682 | 12.26112 | 68 ft | 145 kts | 162° |
| 2026-05-05 01:10 | 41.83771 | 12.26496 | 18 ft | 127 kts | 163° |
| 2026-05-05 01:11 | 41.83041 | 12.26801 | 11 ft | 91 kts | 162° |
| 2026-05-05 01:11 | 41.85471 | 12.25775 | 242 ft | 146 kts | 161° |
| 2026-05-05 01:11 | 41.84518 | 12.26181 | 45 ft | 145 kts | 161° |
| 2026-05-05 01:11 | 41.83630 | 12.26554 | 15 ft | 121 kts | 162° |
| 2026-05-05 01:12 | 41.85185 | 12.25898 | 177 ft | 146 kts | 161° |
| 2026-05-05 01:12 | 41.84225 | 12.26303 | 28 ft | 138 kts | 162° |
| 2026-05-05 01:12 | 41.83390 | 12.26654 | 12 ft | 110 kts | 162° |
| 2026-05-05 01:12 | 41.84407 | 12.26227 | 35 ft | 143 kts | 162° |
| 2026-05-05 01:13 | 41.83537 | 12.26592 | 16 ft | 117 kts | 163° |
| 2026-05-05 01:13 | 41.82967 | 12.26832 | 11 ft | 79 kts | 162° |